Time;durP1;ratioP1;P1;durP2;ratioP2;P2;SDS_P1;SDS_P2;PMS_P1;PMS_P2;Temp;Humidity;BMP_temperature;BMP_pressure;BME280_temperature;BME280_humidity;BME280_pressure;Samples;Min_cycle;Max_cycle;Signal;HPM_P1;HPM_P2
2023/12/03 00:02:39;;;;;;;9.60;4.18;;;;;;;;;;5819028;28;20519;-73
2023/12/03 00:05:30;;;;;;;13.15;2.63;;;;;;;;;;5818869;28;20042;-73
2023/12/03 00:08:21;;;;;;;14.35;6.00;;;;;;;;;;5818900;28;20180;-73
2023/12/03 00:11:12;;;;;;;7.55;3.80;;;;;;;;;;5802630;28;20047;-73
2023/12/03 00:14:03;;;;;;;15.40;4.03;;;;;;;;;;5818646;28;20046;-73
2023/12/03 00:16:53;;;;;;;13.35;5.90;;;;;;;;;;5819412;28;20050;-73
2023/12/03 00:19:44;;;;;;;24.02;8.63;;;;;;;;;;5819986;28;20063;-73
2023/12/03 00:22:35;;;;;;;16.08;6.05;;;;;;;;;;5818464;28;20046;-73
2023/12/03 00:25:26;;;;;;;19.73;5.25;;;;;;;;;;5818568;28;20043;-73
2023/12/03 00:28:16;;;;;;;9.30;4.15;;;;;;;;;;5818473;28;20484;-73
2023/12/03 00:31:07;;;;;;;9.20;5.93;;;;;;;;;;5818218;28;20058;-73
2023/12/03 00:33:58;;;;;;;9.57;5.18;;;;;;;;;;5819923;28;20046;-73
2023/12/03 00:36:49;;;;;;;15.40;5.45;;;;;;;;;;5818358;28;20096;-73
2023/12/03 00:39:40;;;;;;;12.10;5.55;;;;;;;;;;5815540;28;20050;-73
2023/12/03 00:42:31;;;;;;;14.23;4.82;;;;;;;;;;5818248;28;20046;-73
2023/12/03 00:45:22;;;;;;;14.35;6.35;;;;;;;;;;5818085;28;20086;-73
2023/12/03 00:48:13;;;;;;;14.00;6.40;;;;;;;;;;5818064;28;20057;-73
2023/12/03 00:51:04;;;;;;;17.42;5.80;;;;;;;;;;5819455;28;20058;-73
2023/12/03 00:53:55;;;;;;;12.80;6.93;;;;;;;;;;5818112;28;20062;-73
2023/12/03 00:56:46;;;;;;;12.57;6.18;;;;;;;;;;5817785;28;20495;-73
2023/12/03 00:59:37;;;;;;;10.45;6.88;;;;;;;;;;5801601;28;20508;-73
2023/12/03 01:02:27;;;;;;;13.00;6.68;;;;;;;;;;5809954;28;20053;-73
2023/12/03 01:05:18;;;;;;;13.65;6.32;;;;;;;;;;5815317;28;20051;-73
2023/12/03 01:08:09;;;;;;;13.23;5.18;;;;;;;;;;5818791;28;20053;-73
2023/12/03 01:11:07;;;;;;;12.82;6.65;;;;;;;;;;5819371;28;20054;-73
2023/12/03 01:13:57;;;;;;;12.88;6.38;;;;;;;;;;5818859;28;20412;-73
2023/12/03 01:16:48;;;;;;;14.95;6.18;;;;;;;;;;5817436;28;20053;-73
2023/12/03 01:19:39;;;;;;;12.75;5.15;;;;;;;;;;5801226;28;20180;-73
2023/12/03 01:22:30;;;;;;;16.13;7.05;;;;;;;;;;5849888;28;20413;-73
2023/12/03 01:25:21;;;;;;;12.95;5.85;;;;;;;;;;5817370;28;20189;-73
2023/12/03 01:28:13;;;;;;;12.43;6.40;;;;;;;;;;5817090;28;20112;-73
2023/12/03 01:31:04;;;;;;;10.93;6.00;;;;;;;;;;5833557;28;20072;-73
2023/12/03 01:33:55;;;;;;;14.93;6.43;;;;;;;;;;5818906;28;20050;-73
2023/12/03 01:36:46;;;;;;;15.68;6.63;;;;;;;;;;5817971;28;20576;-73
2023/12/03 01:39:37;;;;;;;17.10;6.90;;;;;;;;;;5818202;28;20042;-73
2023/12/03 01:42:28;;;;;;;16.35;7.15;;;;;;;;;;5816832;28;20077;-73
2023/12/03 01:45:19;;;;;;;15.23;7.82;;;;;;;;;;5816818;28;20057;-73
2023/12/03 01:48:10;;;;;;;23.48;7.28;;;;;;;;;;5816524;28;20181;-73
2023/12/03 01:51:01;;;;;;;13.55;7.95;;;;;;;;;;5816656;28;20876;-73
2023/12/03 01:53:54;;;;;;;11.13;8.88;;;;;;;;;;5849494;28;20057;-73
2023/12/03 01:56:47;;;;;;;18.65;8.18;;;;;;;;;;5816643;28;20053;-73
2023/12/03 01:59:38;;;;;;;19.67;7.13;;;;;;;;;;5817521;28;20069;-73
2023/12/03 02:02:29;;;;;;;13.93;8.25;;;;;;;;;;5817792;28;20050;-73
2023/12/03 02:05:19;;;;;;;11.40;6.68;;;;;;;;;;5816450;28;20401;-73
2023/12/03 02:08:10;;;;;;;20.75;9.30;;;;;;;;;;5832488;28;20094;-73
2023/12/03 02:11:04;;;;;;;17.63;8.13;;;;;;;;;;5816307;28;20054;-73
2023/12/03 02:13:55;;;;;;;17.13;8.63;;;;;;;;;;5816543;28;20057;-73
2023/12/03 02:16:47;;;;;;;24.92;11.25;;;;;;;;;;5816140;28;20614;-73
2023/12/03 02:19:38;;;;;;;16.00;7.35;;;;;;;;;;5832077;28;20408;-73
2023/12/03 02:22:29;;;;;;;17.38;8.77;;;;;;;;;;5817262;28;20049;-73
2023/12/03 02:25:20;;;;;;;17.90;8.98;;;;;;;;;;5816030;28;20061;-73
2023/12/03 02:28:10;;;;;;;16.27;6.80;;;;;;;;;;5817232;28;20050;-73
2023/12/03 02:31:01;;;;;;;17.48;8.18;;;;;;;;;;5815565;28;20053;-74
2023/12/03 02:34:07;;;;;;;10.48;7.00;;;;;;;;;;5816142;28;20053;-73
2023/12/03 02:36:58;;;;;;;20.50;7.15;;;;;;;;;;5832295;28;20070;-73
2023/12/03 02:39:49;;;;;;;10.68;5.95;;;;;;;;;;5815829;28;20069;-73
2023/12/03 02:42:39;;;;;;;14.80;6.55;;;;;;;;;;5815658;28;20710;-73
2023/12/03 02:45:30;;;;;;;11.48;7.05;;;;;;;;;;5815690;28;20047;-73
2023/12/03 02:48:21;;;;;;;15.65;7.20;;;;;;;;;;5816504;28;20502;-73
2023/12/03 02:51:12;;;;;;;12.90;6.10;;;;;;;;;;5799126;28;20058;-73
2023/12/03 02:54:03;;;;;;;6.93;4.72;;;;;;;;;;5815472;28;20046;-73
2023/12/03 02:56:53;;;;;;;9.77;5.88;;;;;;;;;;5817383;28;20439;-73
2023/12/03 02:59:44;;;;;;;12.15;5.75;;;;;;;;;;5815150;28;20053;-73
2023/12/03 03:02:36;;;;;;;6.78;5.47;;;;;;;;;;5815475;28;20443;-73
2023/12/03 03:05:27;;;;;;;8.23;4.63;;;;;;;;;;5815219;28;20523;-73
2023/12/03 03:08:18;;;;;;;11.48;5.70;;;;;;;;;;5815398;28;20050;-73
2023/12/03 03:11:09;;;;;;;10.70;4.68;;;;;;;;;;5815534;28;20519;-73
2023/12/03 03:13:59;;;;;;;11.02;5.05;;;;;;;;;;5816970;28;20070;-73
2023/12/03 03:16:50;;;;;;;7.90;3.55;;;;;;;;;;5816577;28;20050;-73
2023/12/03 03:19:44;;;;;;;13.10;4.68;;;;;;;;;;5815206;28;20050;-73
2023/12/03 03:22:35;;;;;;;8.77;3.97;;;;;;;;;;5816300;28;20057;-73
2023/12/03 03:25:26;;;;;;;7.50;3.47;;;;;;;;;;5817257;28;20042;-73
2023/12/03 03:28:16;;;;;;;6.05;3.67;;;;;;;;;;5815026;28;20058;-73
2023/12/03 03:31:07;;;;;;;10.52;3.88;;;;;;;;;;5814961;28;20047;-73
2023/12/03 03:33:58;;;;;;;6.10;3.08;;;;;;;;;;5816670;28;20074;-72
2023/12/03 03:36:49;;;;;;;8.77;4.65;;;;;;;;;;5799262;28;20420;-73
2023/12/03 03:39:39;;;;;;;7.93;4.10;;;;;;;;;;5831160;28;20046;-73
2023/12/03 03:42:30;;;;;;;6.47;4.60;;;;;;;;;;5814861;28;20042;-73
2023/12/03 03:45:21;;;;;;;10.95;2.95;;;;;;;;;;5799064;28;20050;-73
2023/12/03 03:48:12;;;;;;;4.72;2.65;;;;;;;;;;5847468;28;20527;-73
2023/12/03 03:51:06;;;;;;;5.13;3.67;;;;;;;;;;5814909;28;20125;-73
2023/12/03 03:53:57;;;;;;;3.72;2.88;;;;;;;;;;5816591;28;20051;-73
2023/12/03 03:56:48;;;;;;;4.30;3.03;;;;;;;;;;5816143;28;20042;-73
2023/12/03 03:59:38;;;;;;;4.28;3.55;;;;;;;;;;5815960;28;20046;-72
2023/12/03 04:02:29;;;;;;;5.70;2.95;;;;;;;;;;5802987;28;20042;-73
2023/12/03 04:05:20;;;;;;;7.35;2.92;;;;;;;;;;5819125;28;20141;-73
2023/12/03 04:08:11;;;;;;;3.35;1.77;;;;;;;;;;5818923;28;20513;-73
2023/12/03 04:11:04;;;;;;;4.43;3.20;;;;;;;;;;5802780;28;20444;-74
2023/12/03 04:13:55;;;;;;;4.55;3.03;;;;;;;;;;5820462;28;20046;-73
2023/12/03 04:16:46;;;;;;;5.00;3.10;;;;;;;;;;5818950;28;20046;-73
2023/12/03 04:19:36;;;;;;;4.00;2.92;;;;;;;;;;5818644;28;20073;-73
2023/12/03 04:22:27;;;;;;;6.38;2.78;;;;;;;;;;5818591;28;20042;-73
2023/12/03 04:25:18;;;;;;;6.68;3.08;;;;;;;;;;5819905;28;20042;-73
2023/12/03 04:28:09;;;;;;;10.20;3.15;;;;;;;;;;5818446;28;20050;-73
2023/12/03 04:31:00;;;;;;;6.90;2.80;;;;;;;;;;5851474;28;20072;-73
2023/12/03 04:33:53;;;;;;;7.82;3.25;;;;;;;;;;5818677;28;20708;-73
2023/12/03 04:36:44;;;;;;;5.22;3.05;;;;;;;;;;5818209;28;20053;-73
2023/12/03 04:39:35;;;;;;;4.97;2.90;;;;;;;;;;5817975;28;20054;-73
2023/12/03 04:42:26;;;;;;;3.13;2.28;;;;;;;;;;5818208;28;20108;-73
2023/12/03 04:45:17;;;;;;;4.32;2.47;;;;;;;;;;5818057;28;20117;-73
2023/12/03 04:48:08;;;;;;;1.95;1.67;;;;;;;;;;5818128;28;20070;-73
2023/12/03 04:50:58;;;;;;;5.10;2.28;;;;;;;;;;5818545;28;20077;-72
2023/12/03 04:53:49;;;;;;;3.72;2.47;;;;;;;;;;5819272;28;20047;-73
2023/12/03 04:56:40;;;;;;;5.38;2.47;;;;;;;;;;5817765;28;20129;-72
2023/12/03 04:59:31;;;;;;;2.25;1.98;;;;;;;;;;5817728;28;20070;-73
2023/12/03 05:02:21;;;;;;;4.03;2.15;;;;;;;;;;5801920;28;20110;-72
2023/12/03 05:05:12;;;;;;;4.43;2.53;;;;;;;;;;5819012;28;20058;-73
2023/12/03 05:08:03;;;;;;;3.47;1.98;;;;;;;;;;5818903;28;20046;-73
2023/12/03 05:10:54;;;;;;;4.30;2.58;;;;;;;;;;5802125;28;20124;-73
2023/12/03 05:13:45;;;;;;;3.53;2.97;;;;;;;;;;5816518;28;20416;-72
2023/12/03 05:16:36;;;;;;;3.25;2.30;;;;;;;;;;5818648;28;20043;-73
2023/12/03 05:19:27;;;;;;;5.03;3.60;;;;;;;;;;5833478;28;20070;-73
2023/12/03 05:22:18;;;;;;;2.10;1.55;;;;;;;;;;5818812;28;20492;-73
2023/12/03 05:25:10;;;;;;;5.45;2.67;;;;;;;;;;5833327;28;20050;-73
2023/12/03 05:28:01;;;;;;;5.07;2.70;;;;;;;;;;5801346;28;20046;-73
2023/12/03 05:30:52;;;;;;;5.53;2.92;;;;;;;;;;5817571;28;20050;-73
2023/12/03 05:33:43;;;;;;;5.25;3.15;;;;;;;;;;5832975;28;20093;-72
2023/12/03 05:36:34;;;;;;;5.18;3.40;;;;;;;;;;5816936;28;20121;-72
2023/12/03 05:39:25;;;;;;;6.80;2.58;;;;;;;;;;5817068;28;20050;-73
2023/12/03 05:42:15;;;;;;;9.52;3.80;;;;;;;;;;5816854;28;20060;-73
2023/12/03 05:45:08;;;;;;;3.05;2.70;;;;;;;;;;5818200;28;20492;-73
2023/12/03 05:47:59;;;;;;;4.13;2.13;;;;;;;;;;5817339;28;20046;-72
2023/12/03 05:50:49;;;;;;;5.47;3.22;;;;;;;;;;5817003;28;20070;-72
2023/12/03 05:53:40;;;;;;;2.47;2.28;;;;;;;;;;5832792;28;20416;-73
2023/12/03 05:56:31;;;;;;;3.88;2.08;;;;;;;;;;5816718;28;20500;-72
2023/12/03 05:59:26;;;;;;;3.10;2.10;;;;;;;;;;5800484;28;20053;-72
2023/12/03 06:02:17;;;;;;;5.38;4.18;;;;;;;;;;5817260;28;20504;-72
2023/12/03 06:05:09;;;;;;;3.78;2.13;;;;;;;;;;5817789;28;20050;-73
2023/12/03 06:08:00;;;;;;;6.85;2.72;;;;;;;;;;5817211;28;20049;-73
2023/12/03 06:10:51;;;;;;;6.22;2.85;;;;;;;;;;5818009;28;20038;-72
2023/12/03 06:13:41;;;;;;;5.38;2.22;;;;;;;;;;5817503;28;20049;-72
2023/12/03 06:16:32;;;;;;;8.98;3.15;;;;;;;;;;5816113;28;20042;-73
2023/12/03 06:19:23;;;;;;;6.57;3.38;;;;;;;;;;5817525;28;20502;-73
2023/12/03 06:22:14;;;;;;;3.17;2.88;;;;;;;;;;5848720;28;20077;-73
2023/12/03 06:25:05;;;;;;;3.05;2.42;;;;;;;;;;5815903;28;20046;-73
2023/12/03 06:27:56;;;;;;;8.93;4.25;;;;;;;;;;5832908;28;20068;-72
2023/12/03 06:30:47;;;;;;;4.57;3.03;;;;;;;;;;5817306;28;20046;-72
2023/12/03 06:33:38;;;;;;;5.10;3.55;;;;;;;;;;5831828;28;20509;-72
2023/12/03 06:36:29;;;;;;;6.28;3.58;;;;;;;;;;5817068;28;20046;-72
2023/12/03 06:39:20;;;;;;;6.40;3.05;;;;;;;;;;5832032;28;20077;-72
2023/12/03 06:42:11;;;;;;;7.90;3.17;;;;;;;;;;5816972;28;20050;-72
2023/12/03 06:45:02;;;;;;;9.18;4.82;;;;;;;;;;5816997;28;20046;-73
2023/12/03 06:47:52;;;;;;;11.18;5.13;;;;;;;;;;5817157;28;20100;-72
2023/12/03 06:50:43;;;;;;;5.28;3.80;;;;;;;;;;5848036;28;20125;-73
2023/12/03 06:53:36;;;;;;;6.28;2.78;;;;;;;;;;5815355;28;20053;-73
2023/12/03 06:56:26;;;;;;;3.55;2.25;;;;;;;;;;5799429;28;20054;-72
2023/12/03 06:59:17;;;;;;;6.20;2.95;;;;;;;;;;5815580;28;20065;-73
2023/12/03 07:02:08;;;;;;;6.95;3.90;;;;;;;;;;5815199;28;20050;-73
2023/12/03 07:04:59;;;;;;;4.53;3.25;;;;;;;;;;5815756;28;20046;-72
2023/12/03 07:07:51;;;;;;;7.53;3.35;;;;;;;;;;5816888;28;20520;-72
2023/12/03 07:10:42;;;;;;;12.13;3.40;;;;;;;;;;5816542;28;20047;-73
2023/12/03 07:13:32;;;;;;;5.65;2.92;;;;;;;;;;5831446;28;20038;-72
2023/12/03 07:16:23;;;;;;;4.18;2.22;;;;;;;;;;5831478;28;20042;-72
2023/12/03 07:19:14;;;;;;;3.40;2.13;;;;;;;;;;5815238;28;20069;-72
2023/12/03 07:22:05;;;;;;;5.88;4.10;;;;;;;;;;5815059;28;20057;-72
2023/12/03 07:24:55;;;;;;;7.00;2.67;;;;;;;;;;5848377;28;20123;-72
2023/12/03 07:27:46;;;;;;;3.83;2.42;;;;;;;;;;5816314;28;20117;-72
2023/12/03 07:30:37;;;;;;;4.05;2.72;;;;;;;;;;5847364;28;20046;-72
2023/12/03 07:33:28;;;;;;;11.13;3.85;;;;;;;;;;5816174;28;20042;-72
2023/12/03 07:36:19;;;;;;;3.20;2.90;;;;;;;;;;5850365;28;20050;-72
2023/12/03 07:39:10;;;;;;;3.75;2.63;;;;;;;;;;5819377;28;20189;-72
2023/12/03 07:42:02;;;;;;;2.97;1.95;;;;;;;;;;5819732;28;20156;-72
2023/12/03 07:44:53;;;;;;;2.10;1.70;;;;;;;;;;5803916;28;20050;-72
2023/12/03 07:47:44;;;;;;;8.25;3.92;;;;;;;;;;5819239;28;20126;-73
2023/12/03 07:50:35;;;;;;;2.90;2.60;;;;;;;;;;5819408;28;20097;-72
2023/12/03 07:53:29;;;;;;;4.40;3.72;;;;;;;;;;5850841;28;20050;-72
2023/12/03 07:56:20;;;;;;;4.45;2.92;;;;;;;;;;5819148;28;20058;-72
2023/12/03 07:59:11;;;;;;;9.07;3.03;;;;;;;;;;5820325;28;20042;-72
2023/12/03 08:02:02;;;;;;;3.05;2.75;;;;;;;;;;5819026;28;20049;-73
2023/12/03 08:04:53;;;;;;;4.07;3.17;;;;;;;;;;5820904;28;20427;-72
2023/12/03 08:07:44;;;;;;;5.53;4.13;;;;;;;;;;5818891;28;20047;-73
2023/12/03 08:10:35;;;;;;;3.53;2.25;;;;;;;;;;5820136;28;20499;-72
2023/12/03 08:13:26;;;;;;;5.60;2.92;;;;;;;;;;5818763;28;20046;-72
2023/12/03 08:16:17;;;;;;;23.38;10.55;;;;;;;;;;5820103;28;20818;-72
2023/12/03 08:19:08;;;;;;;12.55;5.07;;;;;;;;;;5802684;28;20050;-72
2023/12/03 08:21:59;;;;;;;7.22;4.18;;;;;;;;;;5820534;28;20043;-72
2023/12/03 08:24:52;;;;;;;6.57;3.15;;;;;;;;;;5818730;28;20116;-72
2023/12/03 08:27:43;;;;;;;4.03;3.17;;;;;;;;;;5834357;28;20526;-72
2023/12/03 08:30:34;;;;;;;5.68;3.25;;;;;;;;;;5851017;28;20050;-72
2023/12/03 08:33:25;;;;;;;10.85;4.60;;;;;;;;;;5819891;28;20046;-72
2023/12/03 08:36:18;;;;;;;12.82;5.13;;;;;;;;;;5802231;28;20053;-72
2023/12/03 08:39:09;;;;;;;11.90;4.65;;;;;;;;;;5802341;28;20086;-72
2023/12/03 08:42:00;;;;;;;12.43;6.47;;;;;;;;;;5819959;28;20050;-72
2023/12/03 08:44:51;;;;;;;6.97;3.42;;;;;;;;;;5818405;28;20049;-72
2023/12/03 08:47:44;;;;;;;7.55;3.40;;;;;;;;;;5817126;28;20053;-72
2023/12/03 08:50:34;;;;;;;78.38;28.75;;;;;;;;;;5818115;28;20046;-72
2023/12/03 08:53:25;;;;;;;25.08;9.18;;;;;;;;;;5801921;28;20057;-72
2023/12/03 08:56:16;;;;;;;4.28;2.45;;;;;;;;;;5817921;28;20060;-72
2023/12/03 08:59:08;;;;;;;5.22;2.85;;;;;;;;;;5819163;28;20053;-72
2023/12/03 09:01:59;;;;;;;3.08;2.28;;;;;;;;;;5819380;28;20053;-72
2023/12/03 09:04:54;;;;;;;4.90;2.80;;;;;;;;;;5818104;28;20038;-72
2023/12/03 09:07:45;;;;;;;4.03;1.98;;;;;;;;;;5818918;28;20070;-71
2023/12/03 09:10:35;;;;;;;4.15;2.35;;;;;;;;;;5833801;28;20543;-72
2023/12/03 09:13:26;;;;;;;6.07;3.53;;;;;;;;;;5817647;28;20096;-72
2023/12/03 09:16:17;;;;;;;4.53;3.72;;;;;;;;;;5817228;28;20140;-72
2023/12/03 09:19:08;;;;;;;3.90;2.35;;;;;;;;;;5817269;28;20058;-72
2023/12/03 09:21:59;;;;;;;3.63;2.28;;;;;;;;;;5817751;28;20042;-72
2023/12/03 09:24:49;;;;;;;7.25;3.75;;;;;;;;;;5817485;28;20485;-72
2023/12/03 09:27:41;;;;;;;4.63;2.75;;;;;;;;;;5849785;28;20153;-72
2023/12/03 09:30:31;;;;;;;5.68;3.55;;;;;;;;;;5818554;28;20066;-72
2023/12/03 09:33:24;;;;;;;8.00;2.90;;;;;;;;;;5818417;28;20181;-72
2023/12/03 09:36:15;;;;;;;6.68;2.50;;;;;;;;;;5818465;28;20055;-72
2023/12/03 09:39:05;;;;;;;4.82;3.25;;;;;;;;;;5816990;28;20582;-72
2023/12/03 09:42:00;;;;;;;2.67;1.40;;;;;;;;;;5833860;28;20053;-72
2023/12/03 09:44:58;;;;;;;5.90;2.40;;;;;;;;;;5818503;28;20046;-72
2023/12/03 09:47:53;;;;;;;4.95;2.40;;;;;;;;;;5817115;28;20504;-72
2023/12/03 09:50:45;;;;;;;4.00;2.20;;;;;;;;;;5818313;28;20054;-72
2023/12/03 09:53:42;;;;;;;1.70;1.50;;;;;;;;;;5816855;28;20053;-72
2023/12/03 09:56:34;;;;;;;2.50;1.75;;;;;;;;;;5817163;28;20046;-72
2023/12/03 09:59:27;;;;;;;8.18;3.85;;;;;;;;;;5816125;28;20050;-72
2023/12/03 10:02:21;;;;;;;5.55;2.95;;;;;;;;;;5816596;28;20432;-72
2023/12/03 10:05:12;;;;;;;2.67;2.47;;;;;;;;;;5832445;28;20133;-73
2023/12/03 10:08:04;;;;;;;7.95;2.00;;;;;;;;;;5816401;28;20050;-72
2023/12/03 10:11:05;;;;;;;4.43;2.97;;;;;;;;;;5817007;28;20415;-72
2023/12/03 10:14:01;;;;;;;4.38;3.10;;;;;;;;;;5832184;28;20046;-71
2023/12/03 10:16:52;;;;;;;3.53;1.95;;;;;;;;;;5801312;28;20069;-72
2023/12/03 10:19:43;;;;;;;3.13;2.30;;;;;;;;;;5817505;28;20050;-72
2023/12/03 10:22:34;;;;;;;8.98;4.25;;;;;;;;;;5832250;28;20393;-72
2023/12/03 10:25:33;;;;;;;2.25;1.70;;;;;;;;;;5816139;28;20042;-72
2023/12/03 10:28:24;;;;;;;6.78;2.70;;;;;;;;;;5816059;28;20050;-72
2023/12/03 10:31:18;;;;;;;4.82;3.47;;;;;;;;;;5816014;28;20125;-72
2023/12/03 10:34:09;;;;;;;3.75;2.50;;;;;;;;;;5817116;28;20058;-72
2023/12/03 10:37:01;;;;;;;2.67;1.80;;;;;;;;;;5816003;28;20083;-73
2023/12/03 10:39:52;;;;;;;2.92;1.88;;;;;;;;;;5816269;28;20069;-71
2023/12/03 10:42:44;;;;;;;2.40;1.83;;;;;;;;;;5817216;28;20047;-71
2023/12/03 10:45:35;;;;;;;2.45;2.25;;;;;;;;;;5815762;28;20416;-71
2023/12/03 10:48:30;;;;;;;5.43;2.90;;;;;;;;;;5816922;28;20552;-71
2023/12/03 10:51:21;;;;;;;5.45;3.20;;;;;;;;;;5817106;28;20616;-72
2023/12/03 10:54:12;;;;;;;5.00;2.40;;;;;;;;;;5848324;28;20298;-71
2023/12/03 10:57:05;;;;;;;4.85;1.95;;;;;;;;;;5816749;28;20046;-72
2023/12/03 11:00:09;;;;;;;3.05;1.98;;;;;;;;;;5815825;28;20049;-71
2023/12/03 11:03:20;;;;;;;7.65;3.30;;;;;;;;;;5815726;28;20141;-71
2023/12/03 11:06:14;;;;;;;3.10;2.15;;;;;;;;;;5815363;28;20527;-71
2023/12/03 11:09:07;;;;;;;5.63;2.92;;;;;;;;;;5815081;28;20050;-71
2023/12/03 11:11:59;;;;;;;3.17;1.92;;;;;;;;;;5815369;28;20073;-71
2023/12/03 11:14:52;;;;;;;4.35;2.97;;;;;;;;;;5816810;28;20579;-71
2023/12/03 11:17:44;;;;;;;1.35;1.25;;;;;;;;;;5816633;28;20053;-71
2023/12/03 11:20:38;;;;;;;4.75;3.70;;;;;;;;;;5814932;28;20136;-71
2023/12/03 11:24:15;;;;;;;5.20;3.08;;;;;;;;;;5799199;28;20493;-71
2023/12/03 11:27:07;;;;;;;2.05;1.50;;;;;;;;;;5816019;28;20050;-72
2023/12/03 11:30:02;;;;;;;3.83;2.22;;;;;;;;;;5815523;28;20058;-71
2023/12/03 11:32:54;;;;;;;1.45;1.35;;;;;;;;;;5847851;28;20047;-71
2023/12/03 11:35:47;;;;;;;2.45;1.75;;;;;;;;;;5816172;28;20116;-71
2023/12/03 11:38:38;;;;;;;3.92;2.97;;;;;;;;;;5831224;28;20065;-71
2023/12/03 11:41:41;;;;;;;5.28;2.13;;;;;;;;;;5815009;28;20038;-71
2023/12/03 11:44:32;;;;;;;5.10;3.53;;;;;;;;;;5816299;28;20042;-71
2023/12/03 11:47:22;;;;;;;9.75;4.18;;;;;;;;;;5847600;28;20053;-71
2023/12/03 11:50:15;;;;;;;3.35;3.08;;;;;;;;;;5814800;28;20058;-71
2023/12/03 11:53:13;;;;;;;7.07;2.95;;;;;;;;;;5830530;28;20201;-71
2023/12/03 11:56:09;;;;;;;4.05;2.97;;;;;;;;;;5815367;28;20081;-72
2023/12/03 11:58:59;;;;;;;4.78;2.85;;;;;;;;;;5830949;28;20049;-71
2023/12/03 12:01:50;;;;;;;6.07;3.45;;;;;;;;;;5815039;28;20066;-71
2023/12/03 12:04:42;;;;;;;5.38;2.35;;;;;;;;;;5814598;28;20412;-71
2023/12/03 12:07:32;;;;;;;4.15;1.90;;;;;;;;;;5814675;28;20042;-71
2023/12/03 12:10:25;;;;;;;2.60;2.00;;;;;;;;;;5816056;28;20381;-71
2023/12/03 12:13:16;;;;;;;3.05;2.13;;;;;;;;;;5847270;28;20062;-71
2023/12/03 12:16:10;;;;;;;4.90;2.17;;;;;;;;;;5814282;28;20437;-72
2023/12/03 12:19:04;;;;;;;8.40;4.28;;;;;;;;;;5830765;28;20039;-74
2023/12/03 12:21:56;;;;;;;5.63;2.17;;;;;;;;;;5816986;28;20058;-71
2023/12/03 12:24:47;;;;;;;2.20;1.58;;;;;;;;;;5818594;28;20045;-71
2023/12/03 12:27:38;;;;;;;3.42;2.42;;;;;;;;;;5819803;28;20039;-71
2023/12/03 12:30:30;;;;;;;3.25;2.50;;;;;;;;;;5818458;28;20125;-71
2023/12/03 12:33:25;;;;;;;2.60;1.90;;;;;;;;;;5818717;28;20543;-71
2023/12/03 12:36:16;;;;;;;2.45;2.22;;;;;;;;;;5818378;28;20057;-71
2023/12/03 12:39:07;;;;;;;1.98;1.63;;;;;;;;;;5819704;28;20079;-71
2023/12/03 12:41:59;;;;;;;5.95;2.95;;;;;;;;;;5818735;28;20046;-71
2023/12/03 12:44:49;;;;;;;2.88;2.00;;;;;;;;;;5802546;28;20042;-71
2023/12/03 12:47:41;;;;;;;6.40;3.58;;;;;;;;;;5834381;28;20054;-71
2023/12/03 12:50:39;;;;;;;4.63;1.85;;;;;;;;;;5817994;28;20125;-71
2023/12/03 12:53:56;;;;;;;5.82;2.92;;;;;;;;;;5818006;28;20058;-71
2023/12/03 12:56:47;;;;;;;3.95;2.45;;;;;;;;;;5818027;28;20050;-71
2023/12/03 12:59:38;;;;;;;3.97;2.55;;;;;;;;;;5819001;28;20448;-71
2023/12/03 13:02:28;;;;;;;4.75;1.58;;;;;;;;;;5819294;28;20069;-71
2023/12/03 13:05:19;;;;;;;5.97;2.67;;;;;;;;;;5834024;28;20506;-71
2023/12/03 13:08:11;;;;;;;6.93;4.00;;;;;;;;;;5818862;28;20097;-71
2023/12/03 13:11:02;;;;;;;5.60;2.88;;;;;;;;;;5817768;28;20497;-72
2023/12/03 13:13:53;;;;;;;4.38;2.60;;;;;;;;;;5819523;28;20448;-71
2023/12/03 13:16:44;;;;;;;8.07;3.65;;;;;;;;;;5818421;28;20045;-70
2023/12/03 13:19:35;;;;;;;6.18;3.05;;;;;;;;;;5818979;28;20045;-71
2023/12/03 13:22:26;;;;;;;4.40;3.03;;;;;;;;;;5818708;28;20046;-71
2023/12/03 13:25:18;;;;;;;6.55;2.75;;;;;;;;;;5817187;28;20065;-71
2023/12/03 13:28:09;;;;;;;7.85;3.28;;;;;;;;;;5817129;28;20054;-71
2023/12/03 13:31:00;;;;;;;6.22;3.05;;;;;;;;;;5817296;28;20054;-71
2023/12/03 13:33:50;;;;;;;6.72;2.35;;;;;;;;;;5818069;28;20042;-71
2023/12/03 13:36:41;;;;;;;4.35;2.17;;;;;;;;;;5818039;28;20042;-71
2023/12/03 13:39:32;;;;;;;2.42;1.95;;;;;;;;;;5816839;28;20069;-71
2023/12/03 13:42:23;;;;;;;6.30;3.97;;;;;;;;;;5818320;28;20557;-71
2023/12/03 13:45:14;;;;;;;4.82;2.70;;;;;;;;;;5816718;28;20129;-71
2023/12/03 13:48:05;;;;;;;3.58;2.55;;;;;;;;;;5818333;28;20050;-72
2023/12/03 13:50:56;;;;;;;5.57;2.55;;;;;;;;;;5833433;28;20046;-71
2023/12/03 13:53:48;;;;;;;3.88;2.60;;;;;;;;;;5849134;28;20528;-71
2023/12/03 13:56:39;;;;;;;3.17;2.05;;;;;;;;;;5849172;28;20053;-71
2023/12/03 13:59:29;;;;;;;6.95;2.95;;;;;;;;;;5816530;28;20042;-71
2023/12/03 14:02:21;;;;;;;6.25;2.33;;;;;;;;;;5816607;28;20588;-71
2023/12/03 14:05:29;;;;;;;8.20;4.97;;;;;;;;;;5816595;28;20125;-71
2023/12/03 14:08:19;;;;;;;7.25;4.03;;;;;;;;;;5816399;28;20056;-71
2023/12/03 14:11:10;;;;;;;5.78;2.70;;;;;;;;;;5816061;28;20058;-71
2023/12/03 14:14:01;;;;;;;7.78;3.38;;;;;;;;;;5816556;28;20069;-72
2023/12/03 14:16:57;;;;;;;9.63;4.68;;;;;;;;;;5849298;28;20050;-71
2023/12/03 14:19:48;;;;;;;9.10;4.60;;;;;;;;;;5832347;28;20043;-71
2023/12/03 14:22:40;;;;;;;3.88;2.75;;;;;;;;;;5817412;28;20053;-71
2023/12/03 14:25:31;;;;;;;5.22;3.45;;;;;;;;;;5848402;28;20045;-71
2023/12/03 14:28:22;;;;;;;7.75;4.95;;;;;;;;;;5816034;28;20049;-71
2023/12/03 14:31:13;;;;;;;8.65;4.07;;;;;;;;;;5848239;28;20504;-71
2023/12/03 14:34:03;;;;;;;11.48;5.07;;;;;;;;;;5817195;28;20065;-71
2023/12/03 14:36:54;;;;;;;11.13;6.22;;;;;;;;;;5816575;28;20120;-71
2023/12/03 14:39:45;;;;;;;8.80;5.13;;;;;;;;;;5831904;28;20046;-71
2023/12/03 14:42:36;;;;;;;19.75;6.82;;;;;;;;;;5816794;28;20062;-71
2023/12/03 14:45:27;;;;;;;10.60;5.85;;;;;;;;;;5808926;28;20157;-71
2023/12/03 14:48:18;;;;;;;9.82;4.18;;;;;;;;;;5815562;28;20064;-71
2023/12/03 14:51:17;;;;;;;19.50;7.45;;;;;;;;;;5799566;28;20072;-71
2023/12/03 14:54:08;;;;;;;15.02;7.47;;;;;;;;;;5815382;28;20050;-71
2023/12/03 14:56:59;;;;;;;36.38;13.55;;;;;;;;;;5832226;28;20046;-71
2023/12/03 14:59:50;;;;;;;16.85;8.82;;;;;;;;;;5815333;28;20046;-71
2023/12/03 15:02:42;;;;;;;9.73;5.97;;;;;;;;;;5815405;28;20523;-71
2023/12/03 15:05:33;;;;;;;11.43;6.32;;;;;;;;;;5815572;28;20046;-71
2023/12/03 15:08:24;;;;;;;14.25;5.10;;;;;;;;;;5831977;28;20050;-71
2023/12/03 15:11:16;;;;;;;11.73;4.57;;;;;;;;;;5815451;28;20054;-71
2023/12/03 15:14:06;;;;;;;7.72;3.53;;;;;;;;;;5831572;28;20061;-71
2023/12/03 15:16:57;;;;;;;8.40;4.68;;;;;;;;;;5816990;28;20042;-71
2023/12/03 15:19:48;;;;;;;4.75;2.83;;;;;;;;;;5815360;28;20054;-71
2023/12/03 15:22:39;;;;;;;7.00;4.53;;;;;;;;;;5815241;28;20042;-71
2023/12/03 15:25:30;;;;;;;5.28;2.63;;;;;;;;;;5831353;28;20042;-71
2023/12/03 15:28:21;;;;;;;5.68;3.83;;;;;;;;;;5815399;28;20061;-71
2023/12/03 15:31:12;;;;;;;5.32;2.42;;;;;;;;;;5814923;28;20404;-71
2023/12/03 15:34:02;;;;;;;7.68;2.95;;;;;;;;;;5815123;28;20047;-71
2023/12/03 15:36:53;;;;;;;7.13;3.92;;;;;;;;;;5816850;28;20120;-70
2023/12/03 15:39:44;;;;;;;9.52;3.42;;;;;;;;;;5816733;28;20046;-70
2023/12/03 15:42:35;;;;;;;8.23;3.33;;;;;;;;;;5814978;28;20044;-71
2023/12/03 15:45:26;;;;;;;8.18;3.70;;;;;;;;;;5814953;28;20051;-71
2023/12/03 15:48:17;;;;;;;17.27;3.60;;;;;;;;;;5815054;28;20054;-71
2023/12/03 15:51:08;;;;;;;12.38;5.85;;;;;;;;;;5814864;28;20046;-71
2023/12/03 15:53:59;;;;;;;7.07;4.75;;;;;;;;;;5816606;28;20046;-71
2023/12/03 15:56:52;;;;;;;12.75;4.18;;;;;;;;;;5816645;28;20139;-71
2023/12/03 15:59:43;;;;;;;11.93;4.63;;;;;;;;;;5819081;28;20129;-71
2023/12/03 16:02:35;;;;;;;16.25;6.47;;;;;;;;;;5820389;28;20047;-71
2023/12/03 16:05:26;;;;;;;6.95;5.53;;;;;;;;;;5820653;28;20042;-71
2023/12/03 16:08:18;;;;;;;7.28;5.00;;;;;;;;;;5820349;28;20141;-71
2023/12/03 16:11:09;;;;;;;12.10;5.60;;;;;;;;;;5820302;28;20072;-71
2023/12/03 16:13:59;;;;;;;15.10;7.10;;;;;;;;;;5820716;28;20046;-71
2023/12/03 16:16:50;;;;;;;11.18;6.97;;;;;;;;;;5818899;28;20120;-71
2023/12/03 16:19:43;;;;;;;15.73;6.50;;;;;;;;;;5820177;28;20046;-70
2023/12/03 16:22:34;;;;;;;12.27;6.10;;;;;;;;;;5818701;28;20048;-71
2023/12/03 16:25:25;;;;;;;13.95;7.40;;;;;;;;;;5820068;28;20992;-71
2023/12/03 16:28:16;;;;;;;10.68;7.15;;;;;;;;;;5818559;28;20090;-71
2023/12/03 16:31:07;;;;;;;13.02;6.63;;;;;;;;;;5802220;28;20505;-71
2023/12/03 16:33:58;;;;;;;14.60;5.88;;;;;;;;;;5851919;28;20054;-70
2023/12/03 16:36:48;;;;;;;26.08;7.15;;;;;;;;;;5818439;28;20057;-71
2023/12/03 16:39:40;;;;;;;12.15;6.78;;;;;;;;;;5819660;28;20116;-71
2023/12/03 16:42:31;;;;;;;6.05;3.88;;;;;;;;;;5819725;28;20057;-71
2023/12/03 16:45:23;;;;;;;13.13;5.82;;;;;;;;;;5818637;28;20058;-71
2023/12/03 16:48:15;;;;;;;16.80;8.38;;;;;;;;;;5819491;28;20053;-71
2023/12/03 16:51:06;;;;;;;16.02;5.60;;;;;;;;;;5819507;28;20050;-71
2023/12/03 16:53:58;;;;;;;12.70;6.07;;;;;;;;;;5818755;28;20520;-71
2023/12/03 16:56:48;;;;;;;21.08;9.93;;;;;;;;;;5834120;28;20050;-71
2023/12/03 16:59:39;;;;;;;29.75;15.38;;;;;;;;;;5819199;28;20046;-70
2023/12/03 17:02:30;;;;;;;47.85;23.95;;;;;;;;;;5819261;28;20053;-71
2023/12/03 17:05:21;;;;;;;46.20;23.77;;;;;;;;;;5819065;28;20125;-71